sensor_id;sensor_type;location;lat;lon;timestamp;P1;durP1;ratioP1;P2;durP2;ratioP2
13202;SDS011;6666;51.626;7.530;2023-07-13T00:00:36;6.30;;;2.20;;
13202;SDS011;6666;51.626;7.530;2023-07-13T00:03:04;3.60;;;1.73;;
13202;SDS011;6666;51.626;7.530;2023-07-13T00:05:33;5.88;;;2.10;;
13202;SDS011;6666;51.626;7.530;2023-07-13T00:08:01;3.05;;;1.77;;
13202;SDS011;6666;51.626;7.530;2023-07-13T00:10:29;3.08;;;1.73;;
13202;SDS011;6666;51.626;7.530;2023-07-13T00:12:59;4.70;;;1.73;;
13202;SDS011;6666;51.626;7.530;2023-07-13T00:15:27;2.60;;;1.70;;
13202;SDS011;6666;51.626;7.530;2023-07-13T00:17:58;4.50;;;2.20;;
13202;SDS011;6666;51.626;7.530;2023-07-13T00:20:27;4.53;;;1.80;;
13202;SDS011;6666;51.626;7.530;2023-07-13T00:22:55;5.45;;;1.80;;
13202;SDS011;6666;51.626;7.530;2023-07-13T00:25:24;4.68;;;1.70;;
13202;SDS011;6666;51.626;7.530;2023-07-13T00:27:54;5.25;;;1.77;;
13202;SDS011;6666;51.626;7.530;2023-07-13T00:30:24;5.80;;;2.03;;
13202;SDS011;6666;51.626;7.530;2023-07-13T00:32:52;5.30;;;2.40;;
13202;SDS011;6666;51.626;7.530;2023-07-13T00:35:38;8.90;;;2.58;;
13202;SDS011;6666;51.626;7.530;2023-07-13T00:38:08;6.65;;;1.70;;
13202;SDS011;6666;51.626;7.530;2023-07-13T00:40:36;3.13;;;1.60;;
13202;SDS011;6666;51.626;7.530;2023-07-13T00:43:04;4.97;;;1.55;;
13202;SDS011;6666;51.626;7.530;2023-07-13T00:48:38;4.80;;;1.80;;
13202;SDS011;6666;51.626;7.530;2023-07-13T00:51:07;3.38;;;1.55;;
13202;SDS011;6666;51.626;7.530;2023-07-13T00:53:36;4.50;;;2.00;;
13202;SDS011;6666;51.626;7.530;2023-07-13T00:56:05;5.80;;;1.60;;
13202;SDS011;6666;51.626;7.530;2023-07-13T00:58:33;7.70;;;1.83;;
13202;SDS011;6666;51.626;7.530;2023-07-13T01:01:03;6.28;;;1.98;;
13202;SDS011;6666;51.626;7.530;2023-07-13T01:03:32;4.10;;;1.80;;
13202;SDS011;6666;51.626;7.530;2023-07-13T01:06:04;4.57;;;1.80;;
13202;SDS011;6666;51.626;7.530;2023-07-13T01:08:31;4.18;;;1.70;;
13202;SDS011;6666;51.626;7.530;2023-07-13T01:11:00;7.32;;;2.50;;
13202;SDS011;6666;51.626;7.530;2023-07-13T01:13:28;4.63;;;1.80;;
13202;SDS011;6666;51.626;7.530;2023-07-13T01:15:57;7.03;;;1.90;;
13202;SDS011;6666;51.626;7.530;2023-07-13T01:18:28;6.72;;;1.30;;
13202;SDS011;6666;51.626;7.530;2023-07-13T01:20:59;3.97;;;2.03;;
13202;SDS011;6666;51.626;7.530;2023-07-13T01:23:29;4.00;;;2.10;;
13202;SDS011;6666;51.626;7.530;2023-07-13T01:25:58;6.60;;;1.80;;
13202;SDS011;6666;51.626;7.530;2023-07-13T01:28:27;4.60;;;1.38;;
13202;SDS011;6666;51.626;7.530;2023-07-13T01:30:57;3.13;;;1.45;;
13202;SDS011;6666;51.626;7.530;2023-07-13T01:33:26;5.43;;;1.20;;
13202;SDS011;6666;51.626;7.530;2023-07-13T01:35:55;7.53;;;1.70;;
13202;SDS011;6666;51.626;7.530;2023-07-13T01:38:25;3.00;;;1.42;;
13202;SDS011;6666;51.626;7.530;2023-07-13T01:40:54;2.70;;;1.40;;
13202;SDS011;6666;51.626;7.530;2023-07-13T01:43:24;5.95;;;1.50;;
13202;SDS011;6666;51.626;7.530;2023-07-13T01:45:52;7.95;;;1.60;;
13202;SDS011;6666;51.626;7.530;2023-07-13T01:48:35;4.23;;;1.60;;
13202;SDS011;6666;51.626;7.530;2023-07-13T01:51:03;4.80;;;1.30;;
13202;SDS011;6666;51.626;7.530;2023-07-13T01:53:32;4.85;;;1.58;;
13202;SDS011;6666;51.626;7.530;2023-07-13T01:56:01;3.10;;;1.40;;
13202;SDS011;6666;51.626;7.530;2023-07-13T01:58:29;4.57;;;1.80;;
13202;SDS011;6666;51.626;7.530;2023-07-13T02:00:57;7.82;;;1.50;;
13202;SDS011;6666;51.626;7.530;2023-07-13T02:03:27;4.88;;;1.50;;
13202;SDS011;6666;51.626;7.530;2023-07-13T02:05:57;3.10;;;1.20;;
13202;SDS011;6666;51.626;7.530;2023-07-13T02:08:25;3.25;;;1.25;;
13202;SDS011;6666;51.626;7.530;2023-07-13T02:10:55;2.78;;;1.30;;
13202;SDS011;6666;51.626;7.530;2023-07-13T02:13:23;5.43;;;1.33;;
13202;SDS011;6666;51.626;7.530;2023-07-13T02:15:51;3.95;;;1.23;;
13202;SDS011;6666;51.626;7.530;2023-07-13T02:18:20;8.10;;;1.10;;
13202;SDS011;6666;51.626;7.530;2023-07-13T02:20:48;5.68;;;1.17;;
13202;SDS011;6666;51.626;7.530;2023-07-13T02:23:16;4.22;;;1.30;;
13202;SDS011;6666;51.626;7.530;2023-07-13T02:25:45;7.78;;;1.20;;
13202;SDS011;6666;51.626;7.530;2023-07-13T02:28:16;5.68;;;1.40;;
13202;SDS011;6666;51.626;7.530;2023-07-13T02:30:44;3.17;;;1.35;;
13202;SDS011;6666;51.626;7.530;2023-07-13T02:33:12;3.72;;;1.60;;
13202;SDS011;6666;51.626;7.530;2023-07-13T02:35:40;3.00;;;1.30;;
13202;SDS011;6666;51.626;7.530;2023-07-13T02:38:09;2.58;;;1.00;;
13202;SDS011;6666;51.626;7.530;2023-07-13T02:40:37;4.03;;;1.52;;
13202;SDS011;6666;51.626;7.530;2023-07-13T02:43:05;2.97;;;1.20;;
13202;SDS011;6666;51.626;7.530;2023-07-13T02:45:34;3.65;;;1.30;;
13202;SDS011;6666;51.626;7.530;2023-07-13T02:48:03;4.20;;;1.10;;
13202;SDS011;6666;51.626;7.530;2023-07-13T02:50:31;5.22;;;1.20;;
13202;SDS011;6666;51.626;7.530;2023-07-13T02:52:59;3.55;;;1.35;;
13202;SDS011;6666;51.626;7.530;2023-07-13T02:55:27;4.53;;;1.10;;
13202;SDS011;6666;51.626;7.530;2023-07-13T02:57:56;3.38;;;1.20;;
13202;SDS011;6666;51.626;7.530;2023-07-13T03:00:24;2.53;;;1.10;;
13202;SDS011;6666;51.626;7.530;2023-07-13T03:02:54;5.47;;;1.33;;
13202;SDS011;6666;51.626;7.530;2023-07-13T03:05:24;6.32;;;1.40;;
13202;SDS011;6666;51.626;7.530;2023-07-13T03:07:52;2.90;;;1.30;;
13202;SDS011;6666;51.626;7.530;2023-07-13T03:10:21;5.18;;;1.30;;
13202;SDS011;6666;51.626;7.530;2023-07-13T03:12:50;3.33;;;1.15;;
13202;SDS011;6666;51.626;7.530;2023-07-13T03:15:23;5.82;;;1.20;;
13202;SDS011;6666;51.626;7.530;2023-07-13T03:17:54;5.82;;;1.70;;
13202;SDS011;6666;51.626;7.530;2023-07-13T03:20:23;2.92;;;1.20;;
13202;SDS011;6666;51.626;7.530;2023-07-13T03:22:51;3.15;;;1.20;;
13202;SDS011;6666;51.626;7.530;2023-07-13T03:25:20;6.47;;;1.30;;
13202;SDS011;6666;51.626;7.530;2023-07-13T03:27:49;8.48;;;1.40;;
13202;SDS011;6666;51.626;7.530;2023-07-13T03:30:17;4.00;;;1.10;;
13202;SDS011;6666;51.626;7.530;2023-07-13T03:32:46;3.47;;;1.40;;
13202;SDS011;6666;51.626;7.530;2023-07-13T03:35:16;5.30;;;1.27;;
13202;SDS011;6666;51.626;7.530;2023-07-13T03:37:44;3.60;;;1.10;;
13202;SDS011;6666;51.626;7.530;2023-07-13T03:40:17;6.25;;;1.30;;
13202;SDS011;6666;51.626;7.530;2023-07-13T03:42:45;2.60;;;1.30;;
13202;SDS011;6666;51.626;7.530;2023-07-13T03:45:16;7.18;;;1.38;;
13202;SDS011;6666;51.626;7.530;2023-07-13T03:47:45;4.60;;;1.30;;
13202;SDS011;6666;51.626;7.530;2023-07-13T03:50:17;5.25;;;1.20;;
13202;SDS011;6666;51.626;7.530;2023-07-13T03:52:46;5.00;;;1.45;;
13202;SDS011;6666;51.626;7.530;2023-07-13T03:55:15;1.70;;;1.00;;
13202;SDS011;6666;51.626;7.530;2023-07-13T03:57:44;3.00;;;1.30;;
13202;SDS011;6666;51.626;7.530;2023-07-13T04:00:13;6.38;;;1.25;;
13202;SDS011;6666;51.626;7.530;2023-07-13T04:02:42;3.70;;;1.30;;
13202;SDS011;6666;51.626;7.530;2023-07-13T04:05:10;4.47;;;1.15;;
13202;SDS011;6666;51.626;7.530;2023-07-13T04:07:40;5.03;;;1.60;;
13202;SDS011;6666;51.626;7.530;2023-07-13T04:10:08;4.07;;;1.50;;
13202;SDS011;6666;51.626;7.530;2023-07-13T04:12:37;6.70;;;1.92;;
13202;SDS011;6666;51.626;7.530;2023-07-13T04:15:05;4.97;;;1.17;;
13202;SDS011;6666;51.626;7.530;2023-07-13T04:17:34;4.75;;;1.35;;
13202;SDS011;6666;51.626;7.530;2023-07-13T04:20:03;2.83;;;1.00;;
13202;SDS011;6666;51.626;7.530;2023-07-13T04:22:32;3.50;;;1.10;;
13202;SDS011;6666;51.626;7.530;2023-07-13T04:25:02;4.80;;;1.50;;
13202;SDS011;6666;51.626;7.530;2023-07-13T04:27:31;4.05;;;1.40;;
13202;SDS011;6666;51.626;7.530;2023-07-13T04:29:59;3.30;;;1.50;;
13202;SDS011;6666;51.626;7.530;2023-07-13T04:32:28;3.65;;;1.30;;
13202;SDS011;6666;51.626;7.530;2023-07-13T04:34:56;5.72;;;1.10;;
13202;SDS011;6666;51.626;7.530;2023-07-13T04:37:25;3.80;;;1.23;;
13202;SDS011;6666;51.626;7.530;2023-07-13T04:39:54;3.20;;;1.20;;
13202;SDS011;6666;51.626;7.530;2023-07-13T04:42:23;8.77;;;1.65;;
13202;SDS011;6666;51.626;7.530;2023-07-13T04:44:51;4.70;;;1.30;;
13202;SDS011;6666;51.626;7.530;2023-07-13T04:47:20;4.80;;;1.23;;
13202;SDS011;6666;51.626;7.530;2023-07-13T04:49:48;2.47;;;1.30;;
13202;SDS011;6666;51.626;7.530;2023-07-13T04:52:16;3.28;;;1.30;;
13202;SDS011;6666;51.626;7.530;2023-07-13T04:54:44;5.50;;;1.30;;
13202;SDS011;6666;51.626;7.530;2023-07-13T04:57:12;3.00;;;1.00;;
13202;SDS011;6666;51.626;7.530;2023-07-13T04:59:42;3.20;;;1.30;;
13202;SDS011;6666;51.626;7.530;2023-07-13T05:02:11;3.20;;;1.15;;
13202;SDS011;6666;51.626;7.530;2023-07-13T05:04:40;3.42;;;1.10;;
13202;SDS011;6666;51.626;7.530;2023-07-13T05:07:08;5.82;;;1.10;;
13202;SDS011;6666;51.626;7.530;2023-07-13T05:09:36;2.42;;;1.00;;
13202;SDS011;6666;51.626;7.530;2023-07-13T05:12:06;2.30;;;1.25;;
13202;SDS011;6666;51.626;7.530;2023-07-13T05:14:36;3.63;;;1.20;;
13202;SDS011;6666;51.626;7.530;2023-07-13T05:17:05;6.50;;;1.60;;
13202;SDS011;6666;51.626;7.530;2023-07-13T05:19:33;4.45;;;2.10;;
13202;SDS011;6666;51.626;7.530;2023-07-13T05:22:02;7.17;;;2.60;;
13202;SDS011;6666;51.626;7.530;2023-07-13T05:24:30;5.30;;;3.67;;
13202;SDS011;6666;51.626;7.530;2023-07-13T05:26:59;5.30;;;1.90;;
13202;SDS011;6666;51.626;7.530;2023-07-13T05:29:27;6.82;;;2.80;;
13202;SDS011;6666;51.626;7.530;2023-07-13T05:31:55;3.85;;;1.58;;
13202;SDS011;6666;51.626;7.530;2023-07-13T05:34:25;12.63;;;5.18;;
13202;SDS011;6666;51.626;7.530;2023-07-13T05:36:53;10.00;;;5.87;;
13202;SDS011;6666;51.626;7.530;2023-07-13T05:39:21;7.55;;;3.70;;
13202;SDS011;6666;51.626;7.530;2023-07-13T05:41:50;3.40;;;1.60;;
13202;SDS011;6666;51.626;7.530;2023-07-13T05:44:18;3.55;;;1.30;;
13202;SDS011;6666;51.626;7.530;2023-07-13T05:46:46;3.30;;;1.70;;
13202;SDS011;6666;51.626;7.530;2023-07-13T05:49:14;5.40;;;1.90;;
13202;SDS011;6666;51.626;7.530;2023-07-13T05:51:44;3.95;;;1.70;;
13202;SDS011;6666;51.626;7.530;2023-07-13T05:54:12;3.53;;;1.40;;
13202;SDS011;6666;51.626;7.530;2023-07-13T05:56:40;5.90;;;1.40;;
13202;SDS011;6666;51.626;7.530;2023-07-13T05:59:08;3.78;;;1.70;;
13202;SDS011;6666;51.626;7.530;2023-07-13T06:01:36;6.18;;;1.50;;
13202;SDS011;6666;51.626;7.530;2023-07-13T06:04:04;5.43;;;1.87;;
13202;SDS011;6666;51.626;7.530;2023-07-13T06:06:33;5.60;;;1.52;;
13202;SDS011;6666;51.626;7.530;2023-07-13T06:09:02;4.05;;;1.48;;
13202;SDS011;6666;51.626;7.530;2023-07-13T06:11:30;4.00;;;1.50;;
13202;SDS011;6666;51.626;7.530;2023-07-13T06:13:58;5.43;;;1.38;;
13202;SDS011;6666;51.626;7.530;2023-07-13T06:16:26;6.40;;;1.80;;
13202;SDS011;6666;51.626;7.530;2023-07-13T06:18:54;4.13;;;1.50;;
13202;SDS011;6666;51.626;7.530;2023-07-13T06:21:23;3.50;;;1.17;;
13202;SDS011;6666;51.626;7.530;2023-07-13T06:23:51;2.70;;;1.37;;
13202;SDS011;6666;51.626;7.530;2023-07-13T06:26:21;5.90;;;1.40;;
13202;SDS011;6666;51.626;7.530;2023-07-13T06:28:49;3.23;;;1.80;;
13202;SDS011;6666;51.626;7.530;2023-07-13T06:31:17;4.32;;;1.45;;
13202;SDS011;6666;51.626;7.530;2023-07-13T06:33:45;5.57;;;1.52;;
13202;SDS011;6666;51.626;7.530;2023-07-13T06:36:14;6.77;;;1.63;;
13202;SDS011;6666;51.626;7.530;2023-07-13T06:38:42;6.80;;;2.30;;
13202;SDS011;6666;51.626;7.530;2023-07-13T06:41:10;5.38;;;1.67;;
13202;SDS011;6666;51.626;7.530;2023-07-13T06:43:40;4.20;;;1.63;;
13202;SDS011;6666;51.626;7.530;2023-07-13T06:46:08;6.28;;;1.85;;
13202;SDS011;6666;51.626;7.530;2023-07-13T06:48:37;10.70;;;2.00;;
13202;SDS011;6666;51.626;7.530;2023-07-13T06:51:05;6.15;;;1.70;;
13202;SDS011;6666;51.626;7.530;2023-07-13T06:53:34;6.03;;;1.77;;
13202;SDS011;6666;51.626;7.530;2023-07-13T06:56:02;7.80;;;1.95;;
13202;SDS011;6666;51.626;7.530;2023-07-13T06:58:33;6.03;;;2.13;;
13202;SDS011;6666;51.626;7.530;2023-07-13T07:01:03;6.90;;;2.07;;
13202;SDS011;6666;51.626;7.530;2023-07-13T07:03:33;4.85;;;2.10;;
13202;SDS011;6666;51.626;7.530;2023-07-13T07:06:03;8.30;;;2.00;;
13202;SDS011;6666;51.626;7.530;2023-07-13T07:08:42;8.52;;;2.20;;
13202;SDS011;6666;51.626;7.530;2023-07-13T07:11:12;8.07;;;2.30;;
13202;SDS011;6666;51.626;7.530;2023-07-13T07:13:41;6.95;;;2.08;;
13202;SDS011;6666;51.626;7.530;2023-07-13T07:16:11;5.40;;;2.15;;
13202;SDS011;6666;51.626;7.530;2023-07-13T07:18:39;4.93;;;1.60;;
13202;SDS011;6666;51.626;7.530;2023-07-13T07:21:07;5.75;;;2.00;;
13202;SDS011;6666;51.626;7.530;2023-07-13T07:23:36;7.15;;;2.20;;
13202;SDS011;6666;51.626;7.530;2023-07-13T07:26:04;7.80;;;2.10;;
13202;SDS011;6666;51.626;7.530;2023-07-13T07:28:35;8.27;;;2.35;;
13202;SDS011;6666;51.626;7.530;2023-07-13T07:31:08;4.57;;;1.80;;
13202;SDS011;6666;51.626;7.530;2023-07-13T07:33:41;4.90;;;2.20;;
13202;SDS011;6666;51.626;7.530;2023-07-13T07:36:09;4.90;;;1.92;;
13202;SDS011;6666;51.626;7.530;2023-07-13T07:38:41;5.57;;;1.98;;
13202;SDS011;6666;51.626;7.530;2023-07-13T07:41:09;5.78;;;2.03;;
13202;SDS011;6666;51.626;7.530;2023-07-13T07:43:40;6.40;;;2.10;;
13202;SDS011;6666;51.626;7.530;2023-07-13T07:46:08;6.30;;;1.90;;
13202;SDS011;6666;51.626;7.530;2023-07-13T07:48:37;3.03;;;1.80;;
13202;SDS011;6666;51.626;7.530;2023-07-13T07:51:06;5.47;;;1.75;;
13202;SDS011;6666;51.626;7.530;2023-07-13T07:53:34;6.10;;;2.10;;
13202;SDS011;6666;51.626;7.530;2023-07-13T07:56:03;6.13;;;2.22;;
13202;SDS011;6666;51.626;7.530;2023-07-13T07:58:51;7.68;;;2.30;;
13202;SDS011;6666;51.626;7.530;2023-07-13T08:01:22;5.13;;;2.30;;
13202;SDS011;6666;51.626;7.530;2023-07-13T08:03:53;5.88;;;2.10;;
13202;SDS011;6666;51.626;7.530;2023-07-13T08:06:26;4.40;;;1.60;;
13202;SDS011;6666;51.626;7.530;2023-07-13T08:09:10;6.55;;;1.88;;
13202;SDS011;6666;51.626;7.530;2023-07-13T08:11:39;6.07;;;1.70;;
13202;SDS011;6666;51.626;7.530;2023-07-13T08:14:10;3.83;;;1.70;;
13202;SDS011;6666;51.626;7.530;2023-07-13T08:16:38;7.13;;;1.80;;
13202;SDS011;6666;51.626;7.530;2023-07-13T08:19:06;6.22;;;2.20;;
13202;SDS011;6666;51.626;7.530;2023-07-13T08:21:35;7.70;;;2.03;;
13202;SDS011;6666;51.626;7.530;2023-07-13T08:24:04;6.70;;;1.90;;
13202;SDS011;6666;51.626;7.530;2023-07-13T08:26:32;10.20;;;2.50;;
13202;SDS011;6666;51.626;7.530;2023-07-13T08:29:00;5.43;;;2.30;;
13202;SDS011;6666;51.626;7.530;2023-07-13T08:31:29;4.10;;;1.73;;
13202;SDS011;6666;51.626;7.530;2023-07-13T08:33:57;4.45;;;1.55;;
13202;SDS011;6666;51.626;7.530;2023-07-13T08:36:27;4.00;;;1.80;;
13202;SDS011;6666;51.626;7.530;2023-07-13T08:38:56;7.78;;;2.40;;
13202;SDS011;6666;51.626;7.530;2023-07-13T08:41:25;4.90;;;2.38;;
13202;SDS011;6666;51.626;7.530;2023-07-13T08:43:55;3.55;;;1.40;;
13202;SDS011;6666;51.626;7.530;2023-07-13T08:46:28;4.90;;;1.70;;
13202;SDS011;6666;51.626;7.530;2023-07-13T08:49:02;6.03;;;2.00;;
13202;SDS011;6666;51.626;7.530;2023-07-13T08:51:35;4.80;;;1.95;;
13202;SDS011;6666;51.626;7.530;2023-07-13T08:54:23;3.70;;;1.65;;
13202;SDS011;6666;51.626;7.530;2023-07-13T08:56:55;5.10;;;1.50;;
13202;SDS011;6666;51.626;7.530;2023-07-13T08:59:27;2.83;;;1.40;;
13202;SDS011;6666;51.626;7.530;2023-07-13T09:02:00;4.15;;;1.42;;
13202;SDS011;6666;51.626;7.530;2023-07-13T09:04:49;4.32;;;1.42;;
13202;SDS011;6666;51.626;7.530;2023-07-13T09:07:26;5.85;;;1.65;;
13202;SDS011;6666;51.626;7.530;2023-07-13T09:10:07;6.03;;;1.60;;
13202;SDS011;6666;51.626;7.530;2023-07-13T09:12:45;4.18;;;1.40;;
13202;SDS011;6666;51.626;7.530;2023-07-13T09:15:24;5.68;;;1.80;;
13202;SDS011;6666;51.626;7.530;2023-07-13T09:17:58;4.20;;;1.80;;
13202;SDS011;6666;51.626;7.530;2023-07-13T09:20:30;7.47;;;1.85;;
13202;SDS011;6666;51.626;7.530;2023-07-13T09:23:03;4.82;;;1.83;;
13202;SDS011;6666;51.626;7.530;2023-07-13T09:25:36;5.63;;;1.70;;
13202;SDS011;6666;51.626;7.530;2023-07-13T09:28:09;4.50;;;1.70;;
13202;SDS011;6666;51.626;7.530;2023-07-13T09:30:46;5.22;;;1.50;;
13202;SDS011;6666;51.626;7.530;2023-07-13T09:33:20;7.07;;;2.00;;
13202;SDS011;6666;51.626;7.530;2023-07-13T09:35:49;4.22;;;1.50;;
13202;SDS011;6666;51.626;7.530;2023-07-13T09:38:18;3.90;;;1.70;;
13202;SDS011;6666;51.626;7.530;2023-07-13T09:40:56;5.57;;;2.03;;
13202;SDS011;6666;51.626;7.530;2023-07-13T09:43:28;4.70;;;1.70;;
13202;SDS011;6666;51.626;7.530;2023-07-13T09:45:56;7.77;;;1.70;;
13202;SDS011;6666;51.626;7.530;2023-07-13T09:48:24;4.95;;;1.60;;
13202;SDS011;6666;51.626;7.530;2023-07-13T09:50:54;6.43;;;1.50;;
13202;SDS011;6666;51.626;7.530;2023-07-13T09:53:23;4.57;;;1.70;;
13202;SDS011;6666;51.626;7.530;2023-07-13T09:55:59;5.63;;;1.60;;
13202;SDS011;6666;51.626;7.530;2023-07-13T09:58:29;6.72;;;1.38;;
13202;SDS011;6666;51.626;7.530;2023-07-13T10:00:59;5.10;;;2.07;;
13202;SDS011;6666;51.626;7.530;2023-07-13T10:03:32;5.35;;;2.38;;
13202;SDS011;6666;51.626;7.530;2023-07-13T10:06:12;4.43;;;2.10;;
13202;SDS011;6666;51.626;7.530;2023-07-13T10:08:41;7.18;;;3.65;;
13202;SDS011;6666;51.626;7.530;2023-07-13T10:11:18;3.55;;;2.20;;
13202;SDS011;6666;51.626;7.530;2023-07-13T10:13:50;3.35;;;2.15;;
13202;SDS011;6666;51.626;7.530;2023-07-13T10:16:20;5.93;;;2.22;;
13202;SDS011;6666;51.626;7.530;2023-07-13T10:18:51;3.60;;;2.00;;
13202;SDS011;6666;51.626;7.530;2023-07-13T10:21:23;5.28;;;1.90;;
13202;SDS011;6666;51.626;7.530;2023-07-13T10:24:03;7.03;;;3.22;;
13202;SDS011;6666;51.626;7.530;2023-07-13T10:26:39;5.35;;;3.00;;
13202;SDS011;6666;51.626;7.530;2023-07-13T10:29:15;7.60;;;4.55;;
13202;SDS011;6666;51.626;7.530;2023-07-13T10:31:45;6.68;;;3.92;;
13202;SDS011;6666;51.626;7.530;2023-07-13T10:34:15;6.60;;;3.67;;
13202;SDS011;6666;51.626;7.530;2023-07-13T10:36:44;4.38;;;2.10;;
13202;SDS011;6666;51.626;7.530;2023-07-13T10:39:15;4.25;;;2.05;;
13202;SDS011;6666;51.626;7.530;2023-07-13T10:41:48;5.70;;;2.22;;
13202;SDS011;6666;51.626;7.530;2023-07-13T10:44:21;6.32;;;2.40;;
13202;SDS011;6666;51.626;7.530;2023-07-13T10:46:53;4.40;;;2.17;;
13202;SDS011;6666;51.626;7.530;2023-07-13T10:49:25;5.50;;;2.25;;
13202;SDS011;6666;51.626;7.530;2023-07-13T10:51:55;4.85;;;2.40;;
13202;SDS011;6666;51.626;7.530;2023-07-13T10:54:26;4.78;;;2.60;;
13202;SDS011;6666;51.626;7.530;2023-07-13T10:57:14;6.45;;;2.80;;
13202;SDS011;6666;51.626;7.530;2023-07-13T10:59:46;4.85;;;3.17;;
13202;SDS011;6666;51.626;7.530;2023-07-13T11:02:25;5.43;;;2.80;;
13202;SDS011;6666;51.626;7.530;2023-07-13T11:04:56;5.50;;;2.65;;
13202;SDS011;6666;51.626;7.530;2023-07-13T11:07:25;7.70;;;2.55;;
13202;SDS011;6666;51.626;7.530;2023-07-13T11:09:55;4.95;;;2.42;;
13202;SDS011;6666;51.626;7.530;2023-07-13T11:15:32;8.10;;;2.90;;
13202;SDS011;6666;51.626;7.530;2023-07-13T11:18:19;3.00;;;2.10;;
13202;SDS011;6666;51.626;7.530;2023-07-13T11:20:49;6.60;;;2.95;;
13202;SDS011;6666;51.626;7.530;2023-07-13T11:23:27;5.85;;;2.10;;
13202;SDS011;6666;51.626;7.530;2023-07-13T11:25:57;8.32;;;3.33;;
13202;SDS011;6666;51.626;7.530;2023-07-13T11:28:29;5.82;;;2.30;;
13202;SDS011;6666;51.626;7.530;2023-07-13T11:31:03;6.60;;;2.60;;
13202;SDS011;6666;51.626;7.530;2023-07-13T11:33:51;5.15;;;2.10;;
13202;SDS011;6666;51.626;7.530;2023-07-13T11:36:31;7.53;;;3.30;;
13202;SDS011;6666;51.626;7.530;2023-07-13T11:39:12;3.88;;;1.98;;
13202;SDS011;6666;51.626;7.530;2023-07-13T11:41:50;4.37;;;2.00;;
13202;SDS011;6666;51.626;7.530;2023-07-13T11:44:23;7.00;;;3.38;;
13202;SDS011;6666;51.626;7.530;2023-07-13T11:46:54;5.67;;;3.30;;
13202;SDS011;6666;51.626;7.530;2023-07-13T11:49:29;10.25;;;5.13;;
13202;SDS011;6666;51.626;7.530;2023-07-13T11:51:59;7.40;;;3.92;;
13202;SDS011;6666;51.626;7.530;2023-07-13T11:54:29;4.93;;;3.35;;
13202;SDS011;6666;51.626;7.530;2023-07-13T11:57:01;10.02;;;4.18;;
13202;SDS011;6666;51.626;7.530;2023-07-13T11:59:36;8.93;;;3.70;;
13202;SDS011;6666;51.626;7.530;2023-07-13T12:02:08;7.40;;;2.83;;
13202;SDS011;6666;51.626;7.530;2023-07-13T12:04:45;7.05;;;3.00;;
13202;SDS011;6666;51.626;7.530;2023-07-13T12:07:15;8.13;;;3.60;;
13202;SDS011;6666;51.626;7.530;2023-07-13T12:09:44;6.55;;;3.25;;
13202;SDS011;6666;51.626;7.530;2023-07-13T12:12:14;9.38;;;4.60;;
13202;SDS011;6666;51.626;7.530;2023-07-13T12:14:46;13.07;;;6.70;;
13202;SDS011;6666;51.626;7.530;2023-07-13T12:17:18;13.52;;;4.50;;
13202;SDS011;6666;51.626;7.530;2023-07-13T12:19:48;8.40;;;3.63;;
13202;SDS011;6666;51.626;7.530;2023-07-13T12:22:18;11.68;;;3.17;;
13202;SDS011;6666;51.626;7.530;2023-07-13T12:24:49;7.88;;;3.67;;
13202;SDS011;6666;51.626;7.530;2023-07-13T12:27:19;6.25;;;3.72;;
13202;SDS011;6666;51.626;7.530;2023-07-13T12:29:51;6.15;;;3.80;;
13202;SDS011;6666;51.626;7.530;2023-07-13T12:32:26;4.30;;;1.90;;
13202;SDS011;6666;51.626;7.530;2023-07-13T12:35:03;8.13;;;4.10;;
13202;SDS011;6666;51.626;7.530;2023-07-13T12:37:48;7.70;;;2.65;;
13202;SDS011;6666;51.626;7.530;2023-07-13T12:40:19;12.25;;;6.72;;
13202;SDS011;6666;51.626;7.530;2023-07-13T12:42:49;7.53;;;3.07;;
13202;SDS011;6666;51.626;7.530;2023-07-13T12:45:21;4.97;;;3.75;;
13202;SDS011;6666;51.626;7.530;2023-07-13T12:47:53;10.00;;;6.70;;
13202;SDS011;6666;51.626;7.530;2023-07-13T12:50:29;9.20;;;6.50;;
13202;SDS011;6666;51.626;7.530;2023-07-13T12:53:04;10.40;;;5.93;;
13202;SDS011;6666;51.626;7.530;2023-07-13T12:55:40;8.65;;;5.68;;
13202;SDS011;6666;51.626;7.530;2023-07-13T12:58:13;10.23;;;5.05;;
13202;SDS011;6666;51.626;7.530;2023-07-13T13:00:51;10.63;;;6.85;;
13202;SDS011;6666;51.626;7.530;2023-07-13T13:03:22;9.65;;;5.32;;
13202;SDS011;6666;51.626;7.530;2023-07-13T13:05:57;11.80;;;6.50;;
13202;SDS011;6666;51.626;7.530;2023-07-13T13:08:30;7.10;;;4.45;;
13202;SDS011;6666;51.626;7.530;2023-07-13T13:10:58;8.80;;;5.40;;
13202;SDS011;6666;51.626;7.530;2023-07-13T13:13:27;7.15;;;4.40;;
13202;SDS011;6666;51.626;7.530;2023-07-13T13:16:00;7.87;;;4.50;;
13202;SDS011;6666;51.626;7.530;2023-07-13T13:18:32;10.68;;;7.20;;
13202;SDS011;6666;51.626;7.530;2023-07-13T13:21:00;18.02;;;10.90;;
13202;SDS011;6666;51.626;7.530;2023-07-13T13:23:29;12.13;;;6.97;;
13202;SDS011;6666;51.626;7.530;2023-07-13T13:25:58;8.43;;;3.60;;
13202;SDS011;6666;51.626;7.530;2023-07-13T13:28:26;7.20;;;3.90;;
13202;SDS011;6666;51.626;7.530;2023-07-13T13:30:56;6.60;;;3.30;;
13202;SDS011;6666;51.626;7.530;2023-07-13T13:33:27;10.50;;;4.40;;
13202;SDS011;6666;51.626;7.530;2023-07-13T13:35:56;8.73;;;4.43;;
13202;SDS011;6666;51.626;7.530;2023-07-13T13:38:25;6.85;;;3.08;;
13202;SDS011;6666;51.626;7.530;2023-07-13T13:40:54;6.95;;;2.38;;
13202;SDS011;6666;51.626;7.530;2023-07-13T13:43:23;3.75;;;2.30;;
13202;SDS011;6666;51.626;7.530;2023-07-13T13:45:54;3.85;;;2.20;;
13202;SDS011;6666;51.626;7.530;2023-07-13T13:48:27;2.92;;;2.10;;
13202;SDS011;6666;51.626;7.530;2023-07-13T13:50:58;7.32;;;4.45;;
13202;SDS011;6666;51.626;7.530;2023-07-13T13:53:28;14.35;;;8.10;;
13202;SDS011;6666;51.626;7.530;2023-07-13T13:55:56;10.95;;;3.17;;
13202;SDS011;6666;51.626;7.530;2023-07-13T13:58:26;6.47;;;2.92;;
13202;SDS011;6666;51.626;7.530;2023-07-13T14:00:54;4.68;;;2.70;;
13202;SDS011;6666;51.626;7.530;2023-07-13T14:03:24;4.28;;;2.70;;
13202;SDS011;6666;51.626;7.530;2023-07-13T14:05:52;4.93;;;2.90;;
13202;SDS011;6666;51.626;7.530;2023-07-13T14:08:23;6.10;;;3.00;;
13202;SDS011;6666;51.626;7.530;2023-07-13T14:10:52;6.37;;;3.20;;
13202;SDS011;6666;51.626;7.530;2023-07-13T14:13:25;5.53;;;3.05;;
13202;SDS011;6666;51.626;7.530;2023-07-13T14:15:55;6.80;;;3.30;;
13202;SDS011;6666;51.626;7.530;2023-07-13T14:18:26;4.03;;;2.90;;
13202;SDS011;6666;51.626;7.530;2023-07-13T14:20:54;5.90;;;3.30;;
13202;SDS011;6666;51.626;7.530;2023-07-13T14:23:22;4.70;;;3.10;;
13202;SDS011;6666;51.626;7.530;2023-07-13T14:25:50;3.80;;;3.08;;
13202;SDS011;6666;51.626;7.530;2023-07-13T14:28:19;5.13;;;2.90;;
13202;SDS011;6666;51.626;7.530;2023-07-13T14:30:50;5.60;;;2.83;;
13202;SDS011;6666;51.626;7.530;2023-07-13T14:33:18;4.50;;;2.95;;
13202;SDS011;6666;51.626;7.530;2023-07-13T14:35:49;3.78;;;2.80;;
13202;SDS011;6666;51.626;7.530;2023-07-13T14:38:19;6.68;;;2.53;;
13202;SDS011;6666;51.626;7.530;2023-07-13T14:40:48;8.07;;;5.00;;
13202;SDS011;6666;51.626;7.530;2023-07-13T14:43:16;6.20;;;3.85;;
13202;SDS011;6666;51.626;7.530;2023-07-13T14:45:46;3.15;;;2.60;;
13202;SDS011;6666;51.626;7.530;2023-07-13T14:48:17;4.40;;;3.45;;
13202;SDS011;6666;51.626;7.530;2023-07-13T14:50:52;5.60;;;4.35;;
13202;SDS011;6666;51.626;7.530;2023-07-13T14:53:22;6.90;;;3.60;;
13202;SDS011;6666;51.626;7.530;2023-07-13T14:55:53;4.70;;;2.78;;
13202;SDS011;6666;51.626;7.530;2023-07-13T14:58:21;5.13;;;3.00;;
13202;SDS011;6666;51.626;7.530;2023-07-13T15:00:49;3.60;;;2.10;;
13202;SDS011;6666;51.626;7.530;2023-07-13T15:03:23;4.63;;;2.73;;
13202;SDS011;6666;51.626;7.530;2023-07-13T15:05:54;4.40;;;2.50;;
13202;SDS011;6666;51.626;7.530;2023-07-13T15:08:22;4.63;;;2.97;;
13202;SDS011;6666;51.626;7.530;2023-07-13T15:10:50;3.55;;;3.05;;
13202;SDS011;6666;51.626;7.530;2023-07-13T15:13:19;5.30;;;3.50;;
13202;SDS011;6666;51.626;7.530;2023-07-13T15:15:53;4.20;;;2.60;;
13202;SDS011;6666;51.626;7.530;2023-07-13T15:18:22;4.03;;;3.20;;
13202;SDS011;6666;51.626;7.530;2023-07-13T15:20:55;4.68;;;2.78;;
13202;SDS011;6666;51.626;7.530;2023-07-13T15:23:26;6.40;;;3.10;;
13202;SDS011;6666;51.626;7.530;2023-07-13T15:25:54;4.32;;;2.60;;